Janice Roberts — WDD6360 — position and weather

sailwx.info

Track history (hours):
 
Tides and Currents Weather Stations Pressure Air Temp Water Temp Dewpoint Dewpoint Depression Visibility Wind Speed Wind Dir Waves Ship Positions

Janice Roberts

Owner: Florida Marine, LLC, Mandeville, LA. More information available from US FCC via Universal Licensing System and Coast Guard Vessel Documentation Center.

Last reported at 2017-Sep-25 11:48 UTC. Time now 2017-Sep-25 13:41 UTC.
Position N 30°01' W 093°59'.

Length 27 m; draft 3.6 m.

Type: Towing. MMSI: 367171930.

Date/timePositionNaut miles runAvg speedWind from/ knotsBaromVisibWave heightAir tempDewpointWater temp
2017-Sep-25 11:48N 30°01' W 093°59'0 0.0
2017-Sep-25 03:45N 30°01' W 093°59'13 1.1
2017-Sep-24 15:52N 30°02' W 093°44'3 5.8
2017-Sep-24 15:26N 30°04' W 093°42'3 6.0
2017-Sep-24 15:00N 30°04' W 093°39'3 6.0
2017-Sep-24 14:30N 30°04' W 093°35'3 6.0
2017-Sep-24 14:00N 30°04' W 093°32'3 6.0
2017-Sep-24 13:30N 30°04' W 093°28'3 6.1
2017-Sep-24 13:00N 30°04' W 093°25'3 6.0
2017-Sep-24 12:30N 30°04' W 093°21'3 5.9
2017-Sep-24 12:00N 30°06' W 093°19'2 4.6
2017-Sep-24 11:30N 30°05' W 093°17'3 5.6
2017-Sep-24 11:00N 30°02' W 093°15'2 4.7
2017-Sep-24 10:30N 30°00' W 093°14'2 4.7
2017-Sep-24 10:00N 29°59' W 093°12'3 6.1
2017-Sep-24 09:30N 29°56' W 093°10'3 5.8
2017-Sep-24 09:00N 29°56' W 093°06'3 6.1
2017-Sep-24 08:30N 29°56' W 093°03'4 6.3
2017-Sep-24 07:53N 29°56' W 092°58'10 5.5
2017-Sep-24 06:09N 29°58' W 092°48'22 5.1
2017-Sep-24 01:55N 29°53' W 092°24'2 5.6
2017-Sep-24 01:29N 29°51' W 092°22'3 5.6
2017-Sep-24 01:00N 29°50' W 092°19'3 5.5
2017-Sep-24 00:30N 29°49' W 092°16'3 6.1
2017-Sep-24 00:00N 29°47' W 092°13'2 3.9
2017-Sep-23 23:30N 29°47' W 092°11'0 0.0
2017-Sep-23 23:00N 29°47' W 092°11'1 2.2
2017-Sep-23 22:30N 29°47' W 092°10'3 5.8
2017-Sep-23 22:00N 29°48' W 092°07'3 5.8
2017-Sep-23 21:30N 29°49' W 092°03'  
2017-Sep-21 10:39N 29°50' W 091°60'1 4.6
2017-Sep-21 10:30N 29°50' W 092°00'2 4.7
2017-Sep-21 10:00N 29°49' W 092°03'2 4.8
2017-Sep-21 09:30N 29°48' W 092°06'2 5.0
2017-Sep-21 09:00N 29°47' W 092°08'2 4.5
2017-Sep-21 08:30N 29°47' W 092°11'2 3.8
2017-Sep-21 08:00N 29°47' W 092°13'2 5.0
2017-Sep-21 07:30N 29°48' W 092°16'3 5.0
2017-Sep-21 07:00N 29°50' W 092°18'3 4.9
2017-Sep-21 06:29N 29°51' W 092°21'2 3.9
2017-Sep-21 05:55N 29°52' W 092°22'36 4.4
2017-Sep-20 21:51N 29°56' W 093°03'1 4.2
2017-Sep-20 21:30N 29°56' W 093°05'2 4.2
2017-Sep-20 21:00N 29°56' W 093°07'2 4.3
2017-Sep-20 20:30N 29°56' W 093°10'2 4.5
2017-Sep-20 20:00N 29°58' W 093°11'2 4.5
2017-Sep-20 19:30N 29°60' W 093°13'2 3.7
2017-Sep-20 19:00N 30°01' W 093°14'1 2.6
2017-Sep-20 18:30N 30°02' W 093°15'2 3.9
2017-Sep-20 18:00N 30°04' W 093°16'2 3.9
2017-Sep-20 17:30N 30°05' W 093°18'1 1.4
2017-Sep-20 17:00N 30°06' W 093°18'0 0.1
2017-Sep-20 16:30N 30°06' W 093°18'0 0.0
2017-Sep-20 16:00N 30°06' W 093°18'0 0.0
2017-Sep-20 15:30N 30°06' W 093°18'0 0.0
2017-Sep-20 15:00N 30°06' W 093°18'0 0.0
2017-Sep-20 14:00N 30°06' W 093°18'0 0.0
2017-Sep-20 13:30N 30°06' W 093°18'1 1.3
2017-Sep-20 13:00N 30°06' W 093°19'2 4.0
2017-Sep-20 12:30N 30°04' W 093°20'1 3.0
2017-Sep-20 12:00N 30°04' W 093°22'2 4.3
2017-Sep-20 11:30N 30°04' W 093°24'2 4.8
2017-Sep-20 11:00N 30°04' W 093°27'2 5.0
2017-Sep-20 10:30N 30°04' W 093°30'3 5.2
2017-Sep-20 10:00N 30°04' W 093°33'3 5.0
2017-Sep-20 09:30N 30°04' W 093°36'2 4.8
2017-Sep-20 09:00N 30°04' W 093°39'3 5.1
2017-Sep-20 08:30N 30°04' W 093°42'2 3.0
2017-Sep-20 08:00N 30°03' W 093°43'0 0.4
2017-Sep-20 07:24N 30°03' W 093°44'0 0.0
2017-Sep-18 21:00N 30°03' W 093°44'1 2.7
2017-Sep-18 20:30N 30°04' W 093°43'0 0.4
2017-Sep-18 19:55N 30°03' W 093°43'2 3.9
2017-Sep-18 19:30N 30°04' W 093°41'3 6.0
2017-Sep-18 19:00N 30°04' W 093°38'2 4.2
2017-Sep-18 18:30N 30°04' W 093°35'3 5.5
2017-Sep-18 18:00N 30°04' W 093°32'2 4.7
2017-Sep-18 17:30N 30°04' W 093°30'3 5.7
2017-Sep-18 17:00N 30°04' W 093°26'3 5.6
2017-Sep-18 16:30N 30°04' W 093°23'2 3.9
2017-Sep-18 16:00N 30°04' W 093°21'3 5.2
2017-Sep-18 15:30N 30°06' W 093°19'2 4.8
2017-Sep-18 15:00N 30°05' W 093°17'0 0.8
2017-Sep-18 14:30N 30°04' W 093°16'0 0.0
2017-Sep-18 14:00N 30°04' W 093°16'0 0.0
2017-Sep-18 13:30N 30°04' W 093°16'0 0.5
2017-Sep-18 13:00N 30°04' W 093°16'1 2.1
2017-Sep-18 12:31N 30°03' W 093°16'2 4.8
2017-Sep-18 12:00N 30°01' W 093°14'3 5.8
2017-Sep-18 11:30N 29°59' W 093°12'3 6.3
2017-Sep-18 11:00N 29°56' W 093°10'2 4.6
2017-Sep-18 10:30N 29°56' W 093°07'3 5.6
2017-Sep-18 10:00N 29°56' W 093°04'3 6.1
2017-Sep-18 09:28N 29°56' W 093°00'34 5.4
2017-Sep-18 03:14N 29°51' W 092°22'1 5.1
2017-Sep-18 02:59N 29°51' W 092°20'1 1.6
2017-Sep-18 02:29N 29°50' W 092°19'2 3.7
2017-Sep-18 02:00N 29°50' W 092°18'3 5.4
2017-Sep-18 01:30N 29°48' W 092°15'3 5.6
2017-Sep-18 01:00N 29°47' W 092°12'3 5.3
2017-Sep-18 00:30N 29°47' W 092°09'3 6.1
2017-Sep-18 00:00N 29°48' W 092°06'3 5.9
2017-Sep-17 23:30N 29°49' W 092°02'  
Track history (hours):
 
Tides and Currents Weather Stations Pressure Air Temp Water Temp Dewpoint Dewpoint Depression Visibility Wind Speed Wind Dir Waves Ship Positions

Janice Roberts

Owner: Florida Marine, LLC, Mandeville, LA. More information available from US FCC via Universal Licensing System and Coast Guard Vessel Documentation Center.

Last reported at 2017-Sep-25 11:48 UTC. Time now 2017-Sep-25 13:41 UTC.
Position N 30°01' W 093°59'.

Length 27 m; draft 3.6 m.

Type: Towing. MMSI: 367171930.

Date/timePositionNaut miles runAvg speedWind from/ knotsBaromVisibWave heightAir tempDewpointWater temp
2017-Sep-25 11:48N 30°01' W 093°59'0 0.0
2017-Sep-25 03:45N 30°01' W 093°59'13 1.1
2017-Sep-24 15:52N 30°02' W 093°44'3 5.8
2017-Sep-24 15:26N 30°04' W 093°42'3 6.0
2017-Sep-24 15:00N 30°04' W 093°39'3 6.0
2017-Sep-24 14:30N 30°04' W 093°35'3 6.0
2017-Sep-24 14:00N 30°04' W 093°32'3 6.0
2017-Sep-24 13:30N 30°04' W 093°28'3 6.1
2017-Sep-24 13:00N 30°04' W 093°25'3 6.0
2017-Sep-24 12:30N 30°04' W 093°21'3 5.9
2017-Sep-24 12:00N 30°06' W 093°19'2 4.6
2017-Sep-24 11:30N 30°05' W 093°17'3 5.6
2017-Sep-24 11:00N 30°02' W 093°15'2 4.7
2017-Sep-24 10:30N 30°00' W 093°14'2 4.7
2017-Sep-24 10:00N 29°59' W 093°12'3 6.1
2017-Sep-24 09:30N 29°56' W 093°10'3 5.8
2017-Sep-24 09:00N 29°56' W 093°06'3 6.1
2017-Sep-24 08:30N 29°56' W 093°03'4 6.3
2017-Sep-24 07:53N 29°56' W 092°58'10 5.5
2017-Sep-24 06:09N 29°58' W 092°48'22 5.1
2017-Sep-24 01:55N 29°53' W 092°24'2 5.6
2017-Sep-24 01:29N 29°51' W 092°22'3 5.6
2017-Sep-24 01:00N 29°50' W 092°19'3 5.5
2017-Sep-24 00:30N 29°49' W 092°16'3 6.1
2017-Sep-24 00:00N 29°47' W 092°13'2 3.9
2017-Sep-23 23:30N 29°47' W 092°11'0 0.0
2017-Sep-23 23:00N 29°47' W 092°11'1 2.2
2017-Sep-23 22:30N 29°47' W 092°10'3 5.8
2017-Sep-23 22:00N 29°48' W 092°07'3 5.8
2017-Sep-23 21:30N 29°49' W 092°03'  
2017-Sep-21 10:39N 29°50' W 091°60'1 4.6
2017-Sep-21 10:30N 29°50' W 092°00'2 4.7
2017-Sep-21 10:00N 29°49' W 092°03'2 4.8
2017-Sep-21 09:30N 29°48' W 092°06'2 5.0
2017-Sep-21 09:00N 29°47' W 092°08'2 4.5
2017-Sep-21 08:30N 29°47' W 092°11'2 3.8
2017-Sep-21 08:00N 29°47' W 092°13'2 5.0
2017-Sep-21 07:30N 29°48' W 092°16'3 5.0
2017-Sep-21 07:00N 29°50' W 092°18'3 4.9
2017-Sep-21 06:29N 29°51' W 092°21'2 3.9
2017-Sep-21 05:55N 29°52' W 092°22'36 4.4
2017-Sep-20 21:51N 29°56' W 093°03'1 4.2
2017-Sep-20 21:30N 29°56' W 093°05'2 4.2
2017-Sep-20 21:00N 29°56' W 093°07'2 4.3
2017-Sep-20 20:30N 29°56' W 093°10'2 4.5
2017-Sep-20 20:00N 29°58' W 093°11'2 4.5
2017-Sep-20 19:30N 29°60' W 093°13'2 3.7
2017-Sep-20 19:00N 30°01' W 093°14'1 2.6
2017-Sep-20 18:30N 30°02' W 093°15'2 3.9
2017-Sep-20 18:00N 30°04' W 093°16'2 3.9
2017-Sep-20 17:30N 30°05' W 093°18'1 1.4
2017-Sep-20 17:00N 30°06' W 093°18'0 0.1
2017-Sep-20 16:30N 30°06' W 093°18'0 0.0
2017-Sep-20 16:00N 30°06' W 093°18'0 0.0
2017-Sep-20 15:30N 30°06' W 093°18'0 0.0
2017-Sep-20 15:00N 30°06' W 093°18'0 0.0
2017-Sep-20 14:00N 30°06' W 093°18'0 0.0
2017-Sep-20 13:30N 30°06' W 093°18'1 1.3
2017-Sep-20 13:00N 30°06' W 093°19'2 4.0
2017-Sep-20 12:30N 30°04' W 093°20'1 3.0
2017-Sep-20 12:00N 30°04' W 093°22'2 4.3
2017-Sep-20 11:30N 30°04' W 093°24'2 4.8
2017-Sep-20 11:00N 30°04' W 093°27'2 5.0
2017-Sep-20 10:30N 30°04' W 093°30'3 5.2
2017-Sep-20 10:00N 30°04' W 093°33'3 5.0
2017-Sep-20 09:30N 30°04' W 093°36'2 4.8
2017-Sep-20 09:00N 30°04' W 093°39'3 5.1
2017-Sep-20 08:30N 30°04' W 093°42'2 3.0
2017-Sep-20 08:00N 30°03' W 093°43'0 0.4
2017-Sep-20 07:24N 30°03' W 093°44'0 0.0
2017-Sep-18 21:00N 30°03' W 093°44'1 2.7
2017-Sep-18 20:30N 30°04' W 093°43'0 0.4
2017-Sep-18 19:55N 30°03' W 093°43'2 3.9
2017-Sep-18 19:30N 30°04' W 093°41'3 6.0
2017-Sep-18 19:00N 30°04' W 093°38'2 4.2
2017-Sep-18 18:30N 30°04' W 093°35'3 5.5
2017-Sep-18 18:00N 30°04' W 093°32'2 4.7
2017-Sep-18 17:30N 30°04' W 093°30'3 5.7
2017-Sep-18 17:00N 30°04' W 093°26'3 5.6
2017-Sep-18 16:30N 30°04' W 093°23'2 3.9
2017-Sep-18 16:00N 30°04' W 093°21'3 5.2
2017-Sep-18 15:30N 30°06' W 093°19'2 4.8
2017-Sep-18 15:00N 30°05' W 093°17'0 0.8
2017-Sep-18 14:30N 30°04' W 093°16'0 0.0
2017-Sep-18 14:00N 30°04' W 093°16'0 0.0
2017-Sep-18 13:30N 30°04' W 093°16'0 0.5
2017-Sep-18 13:00N 30°04' W 093°16'1 2.1
2017-Sep-18 12:31N 30°03' W 093°16'2 4.8
2017-Sep-18 12:00N 30°01' W 093°14'3 5.8
2017-Sep-18 11:30N 29°59' W 093°12'3 6.3
2017-Sep-18 11:00N 29°56' W 093°10'2 4.6
2017-Sep-18 10:30N 29°56' W 093°07'3 5.6
2017-Sep-18 10:00N 29°56' W 093°04'3 6.1
2017-Sep-18 09:28N 29°56' W 093°00'34 5.4
2017-Sep-18 03:14N 29°51' W 092°22'1 5.1
2017-Sep-18 02:59N 29°51' W 092°20'1 1.6
2017-Sep-18 02:29N 29°50' W 092°19'2 3.7
2017-Sep-18 02:00N 29°50' W 092°18'3 5.4
2017-Sep-18 01:30N 29°48' W 092°15'3 5.6
2017-Sep-18 01:00N 29°47' W 092°12'3 5.3
2017-Sep-18 00:30N 29°47' W 092°09'3 6.1
2017-Sep-18 00:00N 29°48' W 092°06'3 5.9
2017-Sep-17 23:30N 29°49' W 092°02'  

Dump ship's entire track history